Flight Track Log - Related Links

Times and Time Zones

All times are in EDT time to prevent confusion due to time zone crossing. See the UAL3756 flight status page for this flight to view local times or setup timezone preferences in your user account.

Time Position Orientation Groundspeed Altitude Reporting Facility
EDT Latitude Longitude Course Direction KTS MPH feet Rate Location/Type
Fri 08:00:42 PM 38.9167 -77.5667 265° West 218 251 2,400  Level Potomac TRACON
Fri 08:01:36 PM 38.9000 -77.6500 256° West 266 306 4,400 2,451 Climbing Potomac TRACON
Fri 08:03:00 PM 38.7996 -77.9871 287° West  Level FlightAware Approximate
Fri 08:03:04 PM 38.8686 -77.7700 251° West 277 319 8,200  Level Washington Center
Fri 08:04:00 PM 38.8346 -78.1384 288° West  Level FlightAware Approximate
Fri 08:04:04 PM 38.8669 -77.8578 269° West 277 319 10,200  Level Washington Center
Fri 08:05:00 PM 38.8500 -78.2933 270° West  Level FlightAware Approximate
Fri 08:05:05 PM 38.8628 -77.9750 267° West 290 334 11,200  Level Washington Center
Fri 08:06:00 PM 38.8476 -78.4511 265° West  Level FlightAware Approximate
Fri 08:06:06 PM 38.8581 -78.0975 267° West 328 377 13,100  Level Washington Center
Fri 08:07:06 PM 38.8533 -78.2253 267° West 352 405 14,900 1,686 Climbing Washington Center
Fri 08:08:07 PM 38.8525 -78.3533 270° West 363 418 16,500 1,475 Climbing Washington Center
Fri 08:09:04 PM 38.8514 -78.4864 269° West 368 423 17,800 1,436 Climbing Washington Center
Fri 08:10:04 PM 38.8503 -78.6225 269° West 373 429 19,300 1,388 Climbing Washington Center
Fri 08:11:05 PM 38.8489 -78.7583 269° West 383 441 20,600 1,230 Climbing Washington Center
Fri 08:12:06 PM 38.8469 -78.9022 269° West 394 453 21,800 1,311 Climbing Washington Center
Fri 08:13:04 PM 38.8450 -79.0461 269° West 400 460 23,200 1,169 Climbing Washington Center
Fri 08:14:04 PM 38.8406 -79.1950 268° West 411 473 24,100 1,041 Climbing Washington Center
Fri 08:15:05 PM 38.8175 -79.3406 259° West 417 480 25,300 1,082 Climbing Washington Center
Fri 08:16:06 PM 38.7897 -79.4936 257° West 427 491 26,300 942 Climbing Washington Center
Fri 08:17:06 PM 38.7589 -79.6650 257° West 444 511 27,200 915 Climbing Washington Center
Fri 08:18:04 PM 38.7308 -79.8178 257° West 450 518 28,100 864 Climbing Washington Center
Fri 08:19:18 PM 38.6944 -79.9953 255° West 454 522 29,100 794 Climbing Indianapolis Center
Fri 08:20:20 PM 38.6639 -80.1553 256° West 459 528 29,900 823 Climbing Indianapolis Center
Fri 08:21:22 PM 38.6356 -80.3136 257° West 458 527 30,800 732 Climbing Indianapolis Center
Fri 08:22:23 PM 38.6044 -80.4747 256° West 465 535 31,400 683 Climbing Indianapolis Center
Fri 08:23:25 PM 38.5744 -80.6372 257° West 468 539 32,200 871 Climbing Indianapolis Center
Fri 08:24:27 PM 38.5356 -80.8319 256° West 469 540 33,200 774 Climbing Indianapolis Center
Fri 08:25:29 PM 38.5033 -80.9939 256° West 468 539 33,800 677 Climbing Indianapolis Center
Fri 08:26:31 PM 38.4714 -81.1578 256° West 471 542 34,600 634 Climbing Indianapolis Center
Fri 08:27:32 PM 38.4378 -81.3225 255° West 474 545 35,100 488 Climbing Indianapolis Center
Fri 08:28:34 PM 38.4058 -81.4903 256° West 479 551 35,600 435 Climbing Indianapolis Center
Fri 08:29:36 PM 38.3714 -81.6586 255° West 484 557 36,000 194 Climbing Indianapolis Center
Fri 08:30:38 PM 38.3342 -81.8247 254° West 485 558 36,000  Level Indianapolis Center
Fri 08:31:39 PM 38.2872 -81.9897 250° West 493 567 36,000  Level Indianapolis Center
Fri 08:32:41 PM 38.2406 -82.1561 250° West 498 573 36,000  Level Indianapolis Center
Fri 08:33:43 PM 38.1931 -82.3250 250° West 504 580 36,000  Level Indianapolis Center
Fri 08:34:44 PM 38.1350 -82.5292 250° West 506 582 36,000  Level Indianapolis Center
Fri 08:35:46 PM 38.0869 -82.6961 250° West 508 585 36,000  Level Indianapolis Center
Fri 08:36:48 PM 38.0386 -82.8656 250° West 511 588 36,000  Level Indianapolis Center
Fri 08:37:50 PM 37.9892 -83.0347 250° West 513 590 36,000  Level Indianapolis Center
Fri 08:38:51 PM 37.9389 -83.2031 249° West 515 593 36,000  Level Indianapolis Center
Fri 08:39:53 PM 37.8864 -83.3694 248° West 512 589 36,000  Level Indianapolis Center
Fri 08:40:55 PM 37.7972 -83.5483 238° Southwest 514 592 36,000  Level Indianapolis Center
Fri 08:41:56 PM 37.7211 -83.6983 237° Southwest 513 590 36,000  Level Indianapolis Center
Fri 08:42:58 PM 37.6442 -83.8497 237° Southwest 514 592 36,000  Level Indianapolis Center
Fri 08:44:00 PM 37.5675 -84.0003 237° Southwest 513 590 36,000  Level Indianapolis Center
Fri 08:45:01 PM 37.4894 -84.1519 237° Southwest 517 595 36,000  Level Indianapolis Center
Fri 08:46:03 PM 37.4011 -84.3264 238° Southwest 510 587 36,000  Level Indianapolis Center
Fri 08:47:05 PM 37.3222 -84.4778 237° Southwest 516 594 36,000  Level Indianapolis Center
Fri 08:48:06 PM 37.2442 -84.6289 237° Southwest 518 596 36,000  Level Indianapolis Center
Fri 08:49:08 PM 37.1656 -84.7786 237° Southwest 516 594 36,000  Level Indianapolis Center
Fri 08:50:10 PM 37.0869 -84.9269 236° Southwest 514 592 36,000  Level Indianapolis Center
Fri 08:51:11 PM 37.0039 -85.0867 237° Southwest 514 592 36,000  Level Indianapolis Center
Fri 08:52:13 PM 36.9250 -85.2361 237° Southwest 516 594 36,000  Level Indianapolis Center
Fri 08:53:14 PM 36.8469 -85.3847 237° Southwest 514 592 36,000  Level Indianapolis Center
Fri 08:54:16 PM 36.7606 -85.5447 236° Southwest 513 590 36,000  Level Indianapolis Center
Fri 08:55:18 PM 36.6733 -85.7075 236° Southwest 512 589 36,000  Level Indianapolis Center
Fri 08:56:19 PM 36.6000 -85.8431 236° Southwest 515 593 36,000  Level Indianapolis Center
Fri 08:57:21 PM 36.5194 -85.9914 236° Southwest 514 592 36,000  Level Indianapolis Center
Fri 08:58:31 PM 36.4272 -86.1608 236° Southwest 523 602 36,000  Level Memphis Center
Fri 08:59:31 PM 36.3467 -86.3092 236° Southwest 523 602 36,000  Level Memphis Center
Fri 09:00:31 PM 36.2600 -86.4653 235° Southwest 523 602 36,000  Level Memphis Center
Fri 09:01:31 PM 36.1789 -86.6056 234° Southwest 518 596 36,000  Level Memphis Center
Fri 09:02:31 PM 36.0978 -86.7506 235° Southwest 518 596 36,000  Level Memphis Center
Fri 09:03:31 PM 36.0206 -86.8925 236° Southwest 518 596 36,000  Level Memphis Center
Fri 09:04:31 PM 35.9489 -87.0161 234° Southwest 513 590 36,000  Level Memphis Center
Fri 09:05:31 PM 35.8519 -87.1403 226° Southwest 506 582 36,000  Level Memphis Center
Fri 09:06:31 PM 35.7569 -87.2617 226° Southwest 494 568 36,000  Level Memphis Center
Fri 09:07:31 PM 35.6642 -87.3828 227° Southwest 488 562 36,000  Level Memphis Center
Fri 09:08:31 PM 35.5775 -87.5108 230° Southwest 488 562 36,000  Level Memphis Center
Fri 09:09:31 PM 35.5014 -87.6486 236° Southwest 493 567 36,000  Level Memphis Center
Fri 09:10:32 PM 35.4169 -87.7967 235° Southwest 493 567 36,000  Level Memphis Center
Fri 09:11:31 PM 35.3547 -87.9233 239° Southwest 493 567 36,000  Level Memphis Center
Fri 09:12:31 PM 35.2781 -88.0578 235° Southwest 493 567 36,000  Level Memphis Center
Fri 09:13:31 PM 35.2033 -88.1969 237° Southwest 493 567 36,000  Level Memphis Center
Fri 09:14:32 PM 35.1264 -88.3286 234° Southwest 493 567 36,000  Level Memphis Center
Fri 09:15:31 PM 35.0492 -88.4647 235° Southwest 493 567 36,000  Level Memphis Center
Fri 09:16:31 PM 34.9739 -88.5908 234° Southwest 480 552 36,000  Level Memphis Center
Fri 09:17:31 PM 34.8983 -88.7214 235° Southwest 486 559 36,000  Level Memphis Center
Fri 09:18:31 PM 34.8208 -88.8519 234° Southwest 486 559 36,000  Level Memphis Center
Fri 09:19:31 PM 34.7453 -88.9847 235° Southwest 486 559 36,000  Level Memphis Center
Fri 09:20:31 PM 34.6672 -89.1172 234° Southwest 481 554 36,000  Level Memphis Center
Fri 09:21:31 PM 34.5831 -89.2597 234° Southwest 481 554 36,000  Level Memphis Center
Fri 09:22:31 PM 34.5069 -89.3894 235° Southwest 481 554 36,000  Level Memphis Center
Fri 09:23:31 PM 34.4308 -89.5211 235° Southwest 481 554 36,000  Level Memphis Center
Fri 09:24:31 PM 34.3564 -89.6478 235° Southwest 481 554 36,000  Level Memphis Center
Fri 09:25:31 PM 34.2797 -89.7789 235° Southwest 481 554 36,000  Level Memphis Center
Fri 09:26:31 PM 34.2053 -89.9075 235° Southwest 476 548 36,000  Level Memphis Center
Fri 09:27:31 PM 34.1389 -90.0183 234° Southwest 471 542 36,000  Level Memphis Center
Fri 09:28:31 PM 34.0639 -90.1467 235° Southwest 471 542 36,000  Level Memphis Center
Fri 09:29:31 PM 33.9889 -90.2719 234° Southwest 471 542 36,000  Level Memphis Center
Fri 09:30:31 PM 33.9119 -90.3997 234° Southwest 471 542 36,000  Level Memphis Center
Fri 09:31:31 PM 33.8386 -90.5247 235° Southwest 471 542 36,000  Level Memphis Center
Fri 09:32:31 PM 33.7633 -90.6494 234° Southwest 471 542 36,000  Level Memphis Center
Fri 09:33:31 PM 33.6794 -90.7892 234° Southwest 471 542 36,000  Level Memphis Center
Fri 09:34:31 PM 33.6039 -90.9108 233° Southwest 471 542 36,000  Level Memphis Center
Fri 09:35:31 PM 33.5281 -91.0350 234° Southwest 471 542 36,000  Level Memphis Center
Fri 09:36:31 PM 33.4522 -91.1614 234° Southwest 471 542 36,000  Level Memphis Center
Fri 09:37:31 PM 33.3761 -91.2850 234° Southwest 471 542 36,000  Level Memphis Center
Fri 09:38:31 PM 33.3000 -91.4061 233° Southwest 471 542 36,000  Level Memphis Center
Fri 09:40:19 PM 33.1717 -91.6214 235° Southwest 451 519 36,000  Level Fort Worth Center
Fri 09:41:19 PM 33.0975 -91.7328 232° Southwest 463 533 36,000  Level Fort Worth Center
Fri 09:42:18 PM 33.0178 -91.8642 234° Southwest 457 526 36,000  Level Fort Worth Center
Fri 09:43:18 PM 32.9397 -91.9903 234° Southwest 457 526 36,000  Level Fort Worth Center
Fri 09:44:18 PM 32.8594 -92.1114 232° Southwest 457 526 36,000  Level Fort Worth Center
Fri 09:45:18 PM 32.8050 -92.2061 236° Southwest 457 526 36,000  Level Fort Worth Center
Fri 09:46:19 PM 32.7125 -92.3422 231° Southwest 457 526 36,000  Level Fort Worth Center
Fri 09:47:18 PM 32.6358 -92.4625 233° Southwest 463 533 36,000  Level Fort Worth Center
Fri 09:48:18 PM 32.5611 -92.5825 234° Southwest 463 533 36,000  Level Fort Worth Center
Fri 09:49:18 PM 32.4822 -92.7050 233° Southwest 463 533 36,000  Level Fort Worth Center
Fri 09:50:18 PM 32.4075 -92.8294 235° Southwest 463 533 36,000  Level Fort Worth Center
Fri 09:51:18 PM 32.3286 -92.9539 233° Southwest 476 548 36,000  Level Fort Worth Center
Fri 09:52:18 PM 32.2514 -93.0756 233° Southwest 471 542 36,000  Level Fort Worth Center
Fri 09:53:18 PM 32.1736 -93.1822 229° Southwest 451 519 36,000  Level Fort Worth Center
Fri 09:54:18 PM 32.0964 -93.3108 235° Southwest 465 535 36,000  Level Fort Worth Center
Fri 09:55:18 PM 32.0169 -93.4319 232° Southwest 471 542 36,000  Level Fort Worth Center
Fri 09:56:18 PM 31.9392 -93.5506 232° Southwest 465 535 36,000  Level Fort Worth Center
Fri 09:57:38 PM 31.8339 -93.7081 232° Southwest 459 528 36,000  Level Houston Center
Fri 09:58:40 PM 31.7592 -93.8211 232° Southwest 460 529 36,000  Level Houston Center
Fri 09:59:41 PM 31.6792 -93.9411 232° Southwest 463 533 36,000  Level Houston Center
Fri 10:00:42 PM 31.6008 -94.0614 233° Southwest 465 535 36,000  Level Houston Center
Fri 10:01:43 PM 31.5044 -94.2047 232° Southwest 463 533 36,000  Level Houston Center
Fri 10:02:44 PM 31.4253 -94.3247 232° Southwest 465 535 36,000  Level Houston Center
Fri 10:03:45 PM 31.3453 -94.4431 232° Southwest 463 533 36,000  Level Houston Center
Fri 10:04:46 PM 31.2653 -94.5606 231° Southwest 459 528 36,000  Level Houston Center
Fri 10:05:47 PM 31.1925 -94.6719 233° Southwest 474 545 36,000  Level Houston Center
Fri 10:06:48 PM 31.0850 -94.7961 225° Southwest 477 549 36,000  Level Houston Center
Fri 10:07:49 PM 30.9922 -94.8989 224° Southwest 464 534 36,000  Level Houston Center
Fri 10:08:50 PM 30.8989 -95.0000 223° Southwest 457 526 36,000  Level Houston Center
Fri 10:09:51 PM 30.8053 -95.1006 223° Southwest 458 527 36,000  Level Houston Center
Fri 10:10:52 PM 30.7108 -95.2017 223° Southwest 459 528 36,000  Level Houston Center
Fri 10:11:53 PM 30.6172 -95.3006 222° Southwest 457 526 36,000  Level Houston Center
Fri 10:12:54 PM 30.5242 -95.4011 223° Southwest 456 525 36,000  Level Houston Center
Fri 10:13:55 PM 30.4356 -95.4936 222° Southwest 455 524 36,000  Level Houston Center
Fri 10:14:56 PM 30.3414 -95.5939 223° Southwest 459 528 36,000  Level Houston Center
Fri 10:15:57 PM 30.2492 -95.6914 222° Southwest 455 524 36,000  Level Houston Center
Fri 10:16:58 PM 30.1367 -95.8094 222° Southwest 457 526 36,000  Level Houston Center
Fri 10:18:00 PM 30.0417 -95.9064 221° Southwest 457 526 36,000  Level Houston Center
Fri 10:19:01 PM 29.9508 -96.0086 224° Southwest 461 531 36,000  Level Houston Center
Fri 10:20:02 PM 29.9003 -96.1397 246° West 447 514 36,000  Level Houston Center
Fri 10:21:03 PM 29.8975 -96.2819 269° West 443 510 36,000  Level Houston Center
Fri 10:22:04 PM 29.8983 -96.4239 270° West 444 511 36,000 -49 Level Houston Center
Fri 10:23:05 PM 29.8992 -96.5656 270° West 446 513 35,900 -1,230 Descending Houston Center
Fri 10:24:06 PM 29.8992 -96.7069 270° West 447 514 33,500 -2,459 Descending Houston Center
Fri 10:25:07 PM 29.8992 -96.8506 270° West 452 520 30,900 -2,508 Descending Houston Center
Fri 10:26:08 PM 29.8989 -96.9958 270° West 455 524 28,400 -2,803 Descending Houston Center
Fri 10:27:09 PM 29.8992 -97.1703 270° West 458 527 25,200 -2,852 Descending Houston Center
Fri 10:28:10 PM 29.8981 -97.3103 270° West 448 516 22,600 -2,557 Descending Houston Center
Fri 10:29:11 PM 29.8992 -97.4483 271° West 436 502 20,000 -2,508 Descending Houston Center
Fri 10:30:12 PM 29.8989 -97.5892 270° West 427 491 17,500 -2,580 Descending Houston Center
Fri 10:30:51 PM 29.8981 -97.6808 269° West 422 486 15,700 -2,357 Descending Houston Center
Fri 10:32:04 PM 29.8961 -97.8356 269° West 386 444 13,100 -1,746 Descending Houston Center
Fri 10:33:05 PM 29.8658 -97.9358 251° West 319 367 11,800 -1,388 Descending Houston Center
Fri 10:34:05 PM 29.8303 -98.0244 245° Southwest 295 339 10,300 -1,488 Descending Houston Center
Fri 10:35:06 PM 29.8047 -98.1097 251° West 278 320 8,800 -1,475 Descending Houston Center
Fri 10:36:07 PM 29.7875 -98.1936 257° West 272 313 7,300 -1,537 Descending Houston Center
Fri 10:37:07 PM 29.7681 -98.2778 255° West 268 308 5,700 -1,140 Descending Houston Center
Fri 10:38:08 PM 29.7486 -98.3622 255° West 273 314 5,000 -347 Descending Houston Center
Fri 10:39:08 PM 29.7231 -98.4517 252° West 271 312 5,000 -446 Level Houston Center
Fri 10:40:09 PM 29.6878 -98.5233 240° Southwest 260 299 4,100 -836 Descending Houston Center
Fri 10:41:10 PM 29.6444 -98.5767 227° Southwest 223 257 3,300 -793 Descending Houston Center
Fri 10:42:10 PM 29.5961 -98.5561 160° South 181 208 2,500 -800 Descending Houston Center

Login

Don't have an account? Register now (free) for customized features, flight alerts, and more!